createdAt,value
2022-12-03T00:00:53.146Z,90.04
2022-12-03T00:03:22.247Z,90.09
2022-12-03T00:05:49.441Z,90.62
2022-12-03T00:08:21.000Z,90.24
2022-12-03T00:10:47.783Z,90.72
2022-12-03T00:13:14.452Z,91.14
2022-12-03T00:15:45.672Z,91.65
2022-12-03T00:18:12.674Z,91.05
2022-12-03T00:20:41.633Z,91.00
2022-12-03T00:23:13.011Z,89.75
2022-12-03T00:25:42.073Z,89.81
2022-12-03T00:28:08.683Z,89.77
2022-12-03T00:30:35.381Z,89.77
2022-12-03T00:33:04.301Z,89.74
2022-12-03T00:35:31.003Z,90.24
2022-12-03T00:38:04.804Z,90.23
2022-12-03T00:40:35.027Z,90.21
2022-12-03T00:43:04.216Z,90.74
2022-12-03T00:45:33.270Z,90.47
2022-12-03T00:48:02.315Z,90.66
2022-12-03T00:50:31.358Z,91.10
2022-12-03T00:53:01.388Z,90.81
2022-12-03T00:55:28.107Z,90.37
2022-12-03T00:57:57.025Z,90.46
2022-12-03T01:00:25.434Z,91.45
2022-12-03T01:02:55.105Z,92.34
2022-12-03T01:05:27.107Z,92.24
2022-12-03T01:07:53.851Z,91.96
2022-12-03T01:10:23.095Z,91.42
2022-12-03T01:12:52.023Z,91.44
2022-12-03T01:15:18.850Z,91.04
2022-12-03T01:17:45.574Z,91.73
2022-12-03T01:20:14.548Z,92.03
2022-12-03T01:22:41.229Z,92.06
2022-12-03T01:25:08.217Z,91.53
2022-12-03T01:27:35.006Z,91.46
2022-12-03T01:30:01.647Z,91.37
2022-12-03T01:32:31.266Z,91.41
2022-12-03T01:34:57.977Z,91.10
2022-12-03T01:37:28.538Z,91.00
2022-12-03T01:39:55.175Z,90.78
2022-12-03T01:42:24.689Z,90.79
2022-12-03T01:44:57.508Z,90.48
2022-12-03T01:47:35.800Z,90.70
2022-12-03T01:50:05.010Z,91.22
2022-12-03T01:52:39.305Z,91.49
2022-12-03T01:55:18.258Z,91.70
2022-12-03T01:57:51.417Z,91.48
2022-12-03T02:00:23.513Z,91.60
2022-12-03T02:02:53.506Z,90.99
2022-12-03T02:05:28.059Z,91.32
2022-12-03T02:08:00.477Z,91.16
2022-12-03T02:10:36.940Z,91.60
2022-12-03T02:13:07.574Z,91.63
2022-12-03T02:15:39.330Z,91.81
2022-12-03T02:18:11.094Z,91.72
2022-12-03T02:20:51.752Z,92.39
2022-12-03T02:23:42.508Z,92.61
2022-12-03T02:26:11.811Z,92.30
2022-12-03T02:28:38.691Z,92.37
2022-12-03T02:31:05.473Z,92.02
2022-12-03T02:33:34.832Z,92.40
2022-12-03T02:36:03.884Z,91.72
2022-12-03T02:38:35.684Z,92.09
2022-12-03T02:41:09.461Z,91.65
2022-12-03T02:43:38.465Z,91.41
2022-12-03T02:46:08.006Z,91.00
2022-12-03T02:48:40.229Z,91.06
2022-12-03T02:51:11.016Z,90.67
2022-12-03T02:53:46.886Z,90.79
2022-12-03T02:56:20.801Z,90.68
2022-12-03T02:59:00.255Z,90.26
2022-12-03T03:01:29.393Z,90.61
2022-12-03T03:03:59.083Z,90.79
2022-12-03T03:06:30.439Z,90.78
2022-12-03T03:08:59.733Z,90.85
2022-12-03T03:11:27.134Z,90.86
2022-12-03T03:13:54.057Z,91.42
2022-12-03T03:16:21.015Z,91.57
2022-12-03T03:18:48.194Z,91.98
2022-12-03T03:21:14.765Z,91.76
2022-12-03T03:23:41.310Z,91.88
2022-12-03T03:26:11.376Z,91.59
2022-12-03T03:28:42.723Z,90.93
2022-12-03T03:31:16.076Z,90.67
2022-12-03T03:33:45.675Z,90.97
2022-12-03T03:36:16.129Z,91.66
2022-12-03T03:38:42.844Z,91.00
2022-12-03T03:41:11.408Z,91.64
2022-12-03T03:43:40.026Z,91.73
2022-12-03T03:46:09.665Z,91.31
2022-12-03T03:48:36.533Z,91.20
2022-12-03T03:51:09.577Z,91.85
2022-12-03T03:53:47.804Z,91.00
2022-12-03T03:56:32.544Z,90.96
2022-12-03T03:58:59.383Z,91.05
2022-12-03T04:01:26.871Z,90.45
2022-12-03T04:03:57.201Z,90.13
2022-12-03T04:06:23.919Z,89.77
2022-12-03T04:08:50.516Z,90.43
2022-12-03T04:11:35.583Z,90.08
2022-12-03T04:14:02.665Z,90.33
2022-12-03T04:16:29.347Z,90.18
2022-12-03T04:19:03.187Z,90.00
2022-12-03T04:21:48.275Z,89.71
2022-12-03T04:24:14.858Z,89.84
2022-12-03T04:27:00.028Z,89.88
2022-12-03T04:29:26.680Z,90.58
2022-12-03T04:32:14.762Z,91.14
2022-12-03T04:34:59.676Z,90.26
2022-12-03T04:37:30.673Z,90.80
2022-12-03T04:39:59.633Z,90.34
2022-12-03T04:42:28.386Z,90.80
2022-12-03T04:44:58.432Z,90.59
2022-12-03T04:47:29.847Z,90.53
2022-12-03T04:49:59.068Z,90.47
2022-12-03T04:52:25.584Z,90.38
2022-12-03T04:54:54.792Z,90.54
2022-12-03T04:57:24.111Z,90.70
2022-12-03T04:59:52.880Z,90.50
2022-12-03T05:02:21.795Z,90.57
2022-12-03T05:04:48.353Z,91.01
2022-12-03T05:07:14.987Z,91.61
2022-12-03T05:09:41.613Z,91.53
2022-12-03T05:12:08.258Z,90.94
2022-12-03T05:14:34.877Z,90.79
2022-12-03T05:17:01.563Z,90.81
2022-12-03T05:19:48.128Z,90.93
2022-12-03T05:22:14.645Z,90.48
2022-12-03T05:24:43.365Z,91.52
2022-12-03T05:27:12.323Z,91.37
2022-12-03T05:29:43.686Z,91.84
2022-12-03T05:32:15.246Z,91.79
2022-12-03T05:34:41.779Z,91.50
2022-12-03T05:37:11.099Z,91.59
2022-12-03T05:39:37.681Z,91.69
2022-12-03T05:42:23.596Z,91.41
2022-12-03T05:44:52.543Z,91.69
2022-12-03T05:47:21.555Z,91.33
2022-12-03T05:49:50.539Z,91.41
2022-12-03T05:52:17.060Z,90.90
2022-12-03T05:54:43.591Z,90.86
2022-12-03T05:57:10.442Z,90.26
2022-12-03T05:59:39.378Z,90.78
2022-12-03T06:02:06.054Z,90.23
2022-12-03T06:04:32.662Z,90.28
2022-12-03T06:07:02.233Z,90.36
2022-12-03T06:09:28.761Z,89.98
2022-12-03T06:11:55.663Z,89.77
2022-12-03T06:14:24.764Z,90.27
2022-12-03T06:16:51.258Z,90.43
2022-12-03T06:19:17.967Z,91.13
2022-12-03T06:21:46.855Z,92.54
2022-12-03T06:24:13.458Z,91.88
2022-12-03T06:26:40.078Z,91.37
2022-12-03T06:29:11.376Z,90.66
2022-12-03T06:31:40.414Z,90.11
2022-12-03T06:34:07.139Z,90.65
2022-12-03T06:36:36.031Z,90.33
2022-12-03T06:39:02.551Z,93.10
2022-12-03T06:41:31.437Z,90.34
2022-12-03T06:43:58.068Z,89.74
2022-12-03T06:46:27.191Z,89.44
2022-12-03T06:48:53.782Z,89.75
2022-12-03T06:51:22.543Z,89.87
2022-12-03T06:53:51.428Z,90.08
2022-12-03T06:56:22.064Z,89.90
2022-12-03T06:58:49.109Z,89.82
2022-12-03T07:01:18.148Z,89.71
2022-12-03T07:03:47.195Z,89.72
2022-12-03T07:06:14.166Z,89.66
2022-12-03T07:08:43.312Z,90.31
2022-12-03T07:11:28.534Z,90.03
2022-12-03T07:13:56.937Z,89.77
2022-12-03T07:16:29.464Z,89.55
2022-12-03T07:18:56.054Z,89.59
2022-12-03T07:21:22.663Z,89.61
2022-12-03T07:23:51.544Z,90.20
2022-12-03T07:26:18.115Z,88.96
2022-12-03T07:28:44.771Z,89.05
2022-12-03T07:31:11.362Z,88.38
2022-12-03T07:33:37.960Z,89.00
2022-12-03T07:36:04.556Z,89.00
2022-12-03T07:38:31.623Z,88.95
2022-12-03T07:40:58.219Z,88.47
2022-12-03T07:43:27.457Z,89.15
2022-12-03T07:45:54.054Z,88.69
2022-12-03T07:48:20.795Z,88.51
2022-12-03T07:50:49.676Z,88.60
2022-12-03T07:53:16.305Z,88.34
2022-12-03T07:55:45.360Z,88.70
2022-12-03T07:58:12.064Z,89.11
2022-12-03T08:00:38.773Z,88.71
2022-12-03T08:03:07.936Z,89.14
2022-12-03T08:05:34.470Z,88.71
2022-12-03T08:08:01.372Z,88.96
2022-12-03T08:10:28.500Z,89.26
2022-12-03T08:12:59.174Z,89.54
2022-12-03T08:15:32.239Z,89.50
2022-12-03T08:18:12.303Z,89.35
2022-12-03T08:20:40.747Z,89.08
2022-12-03T08:23:13.604Z,88.33
2022-12-03T08:25:40.135Z,88.10
2022-12-03T08:32:29.769Z,87.57
2022-12-03T08:35:02.221Z,87.41
2022-12-03T08:43:55.254Z,87.28
2022-12-03T08:50:42.404Z,87.65
2022-12-03T08:53:27.068Z,88.29
2022-12-03T08:55:59.159Z,88.42
2022-12-03T08:58:39.501Z,87.92
2022-12-03T09:01:24.578Z,87.60
2022-12-03T09:04:14.320Z,87.00
2022-12-03T09:06:55.908Z,87.44
2022-12-03T09:09:34.945Z,87.08
2022-12-03T09:12:03.842Z,89.42
2022-12-03T09:14:32.685Z,86.65
2022-12-03T09:17:01.806Z,84.68
2022-12-03T09:19:31.158Z,85.08
2022-12-03T09:21:57.962Z,85.27
2022-12-03T09:24:24.592Z,85.13
2022-12-03T09:26:55.707Z,85.16
2022-12-03T09:29:24.334Z,85.24
2022-12-03T09:31:55.828Z,85.25
2022-12-03T09:34:24.634Z,84.46
2022-12-03T09:36:57.197Z,89.23
2022-12-03T09:39:23.677Z,84.47
2022-12-03T09:46:23.889Z,83.31
2022-12-03T09:48:50.657Z,83.88
2022-12-03T09:51:17.950Z,83.74
2022-12-03T09:53:44.934Z,83.42
2022-12-03T09:56:19.326Z,83.50
2022-12-03T09:58:45.978Z,82.89
2022-12-03T10:01:15.131Z,81.70
2022-12-03T10:03:50.642Z,81.26
2022-12-03T10:06:19.780Z,80.80
2022-12-03T10:08:54.466Z,82.13
2022-12-03T10:11:24.349Z,81.68
2022-12-03T10:13:54.040Z,80.06
2022-12-03T10:16:21.386Z,79.01
2022-12-03T10:18:59.260Z,79.32
2022-12-03T10:21:45.709Z,78.95
2022-12-03T10:24:41.402Z,79.59
2022-12-03T10:27:24.248Z,79.55
2022-12-03T10:29:59.268Z,80.93
2022-12-03T10:32:42.434Z,79.33
2022-12-03T10:35:15.735Z,78.89
2022-12-03T10:38:02.606Z,78.41
2022-12-03T10:40:36.502Z,78.75
2022-12-03T10:43:19.613Z,77.60
2022-12-03T10:45:49.488Z,77.10
2022-12-03T10:48:25.457Z,78.14
2022-12-03T10:51:07.090Z,76.75
2022-12-03T11:00:23.018Z,77.13
2022-12-03T11:02:56.382Z,75.96
2022-12-03T11:05:28.561Z,75.60
2022-12-03T11:07:55.721Z,76.16
2022-12-03T11:10:22.383Z,75.13
2022-12-03T11:13:26.202Z,75.67
2022-12-03T11:15:55.977Z,74.62
2022-12-03T11:18:34.673Z,74.21
2022-12-03T11:21:14.533Z,74.49
2022-12-03T11:23:47.123Z,74.54
2022-12-03T11:26:19.288Z,74.44
2022-12-03T11:28:46.334Z,74.16
2022-12-03T11:31:31.334Z,73.96
2022-12-03T11:34:19.576Z,73.29
2022-12-03T11:37:11.351Z,74.42
2022-12-03T11:39:49.851Z,74.38
2022-12-03T11:42:32.218Z,74.34
2022-12-03T11:45:05.271Z,74.41
2022-12-03T11:47:45.593Z,73.69
2022-12-03T11:50:18.127Z,74.60
2022-12-03T11:52:49.164Z,74.07
2022-12-03T11:55:25.311Z,74.10
2022-12-03T11:57:58.951Z,74.44
2022-12-03T12:00:28.467Z,74.34
2022-12-03T12:02:58.777Z,74.32
2022-12-03T12:05:34.081Z,73.39
2022-12-03T12:08:05.732Z,73.57
2022-12-03T12:10:41.946Z,73.32
2022-12-03T12:13:28.100Z,74.13
2022-12-03T12:16:00.684Z,73.84
2022-12-03T12:18:36.745Z,73.98
2022-12-03T12:21:41.399Z,74.78
2022-12-03T12:24:30.065Z,75.01
2022-12-03T12:26:58.899Z,74.49
2022-12-03T12:29:25.538Z,74.99
2022-12-03T12:31:58.146Z,74.65
2022-12-03T12:34:27.415Z,74.92
2022-12-03T12:36:59.804Z,74.78
2022-12-03T12:39:28.857Z,75.01
2022-12-03T12:41:58.011Z,74.91
2022-12-03T12:44:27.411Z,74.54
2022-12-03T12:47:01.605Z,74.88
2022-12-03T12:49:32.175Z,75.75
2022-12-03T12:51:58.761Z,75.14
2022-12-03T12:54:30.201Z,75.89
2022-12-03T12:56:56.873Z,75.79
2022-12-03T12:59:26.165Z,75.80
2022-12-03T13:01:52.915Z,76.41
2022-12-03T13:04:27.767Z,76.32
2022-12-03T13:06:54.803Z,76.93
2022-12-03T13:09:25.056Z,76.92
2022-12-03T13:11:59.138Z,76.26
2022-12-03T13:14:30.454Z,76.36
2022-12-03T13:17:00.441Z,76.20
2022-12-03T13:19:46.642Z,76.17
2022-12-03T13:22:20.763Z,76.86
2022-12-03T13:24:50.965Z,75.78
2022-12-03T13:27:17.499Z,75.23
2022-12-03T13:30:00.940Z,76.46
2022-12-03T13:32:33.281Z,76.61
2022-12-03T13:35:19.169Z,76.15
2022-12-03T13:37:48.041Z,76.67
2022-12-03T13:40:26.509Z,76.29
2022-12-03T13:42:57.910Z,76.74
2022-12-03T13:45:42.138Z,77.08
2022-12-03T13:48:33.972Z,76.62
2022-12-03T13:51:11.807Z,77.00
2022-12-03T13:53:43.345Z,77.07
2022-12-03T13:56:29.696Z,76.63
2022-12-03T13:59:01.216Z,77.54
2022-12-03T14:01:31.118Z,77.16
2022-12-03T14:03:57.820Z,77.06
2022-12-03T14:06:25.371Z,76.97
2022-12-03T14:08:56.858Z,76.84
2022-12-03T14:11:42.139Z,76.23
2022-12-03T14:14:11.399Z,76.45
2022-12-03T14:16:40.412Z,77.27
2022-12-03T14:19:09.391Z,77.27
2022-12-03T14:21:38.315Z,76.19
2022-12-03T14:24:07.736Z,76.51
2022-12-03T14:26:39.260Z,77.85
2022-12-03T14:29:09.040Z,77.18
2022-12-03T14:31:40.675Z,77.72
2022-12-03T14:34:12.162Z,77.67
2022-12-03T14:36:41.103Z,78.31
2022-12-03T14:39:07.850Z,77.67
2022-12-03T14:41:52.864Z,80.82
2022-12-03T14:44:24.255Z,77.63
2022-12-03T14:46:56.606Z,78.49
2022-12-03T14:49:23.879Z,78.14
2022-12-03T14:51:52.895Z,78.66
2022-12-03T14:54:19.522Z,78.42
2022-12-03T14:56:46.177Z,78.15
2022-12-03T14:59:15.309Z,78.33
2022-12-03T15:01:44.001Z,78.20
2022-12-03T15:04:13.346Z,78.83
2022-12-03T15:06:39.951Z,79.06
2022-12-03T15:09:06.794Z,78.49
2022-12-03T15:11:33.415Z,78.14
2022-12-03T15:14:02.377Z,77.99
2022-12-03T15:16:29.088Z,78.87
2022-12-03T15:18:55.858Z,78.69
2022-12-03T15:21:24.986Z,79.12
2022-12-03T15:23:53.858Z,78.64
2022-12-03T15:26:25.317Z,78.78
2022-12-03T15:29:02.992Z,78.74
2022-12-03T15:31:31.044Z,78.62
2022-12-03T15:33:57.691Z,78.79
2022-12-03T15:36:29.236Z,78.78
2022-12-03T15:38:56.835Z,79.02
2022-12-03T15:41:31.264Z,78.98
2022-12-03T15:44:02.685Z,79.54
2022-12-03T15:46:31.464Z,79.91
2022-12-03T15:48:58.344Z,80.05
2022-12-03T15:51:27.314Z,80.48
2022-12-03T15:53:56.345Z,80.57
2022-12-03T15:56:28.314Z,80.70
2022-12-03T15:58:55.093Z,80.14
2022-12-03T16:01:23.976Z,81.87
2022-12-03T16:03:55.348Z,81.37
2022-12-03T16:06:24.582Z,81.20
2022-12-03T16:08:53.753Z,81.35
2022-12-03T16:11:22.647Z,81.09
2022-12-03T16:13:49.230Z,82.20
2022-12-03T16:16:20.624Z,81.86
2022-12-03T16:18:49.571Z,81.70
2022-12-03T16:21:26.419Z,81.74
2022-12-03T16:23:59.336Z,81.49
2022-12-03T16:26:35.283Z,81.94
2022-12-03T16:36:43.066Z,82.81
2022-12-03T16:39:14.516Z,81.85
2022-12-03T16:41:46.578Z,82.22
2022-12-03T16:44:57.645Z,82.39
2022-12-03T16:47:28.046Z,81.91
2022-12-03T16:54:43.921Z,82.62
2022-12-03T16:57:10.577Z,82.78
2022-12-03T16:59:37.257Z,82.98
2022-12-03T17:02:04.148Z,82.91
2022-12-03T17:04:30.955Z,82.65
2022-12-03T17:06:57.508Z,83.34
2022-12-03T17:09:24.590Z,82.82
2022-12-03T17:11:51.269Z,82.65
2022-12-03T17:14:18.111Z,82.89
2022-12-03T17:16:49.401Z,82.56
2022-12-03T17:19:23.305Z,82.77
2022-12-03T17:21:49.973Z,83.08
2022-12-03T17:24:16.789Z,83.07
2022-12-03T17:26:44.803Z,83.55
2022-12-03T17:29:11.365Z,83.32
2022-12-03T17:31:41.938Z,83.75
2022-12-03T17:34:09.633Z,83.49
2022-12-03T17:36:36.305Z,83.58
2022-12-03T17:39:06.335Z,83.27
2022-12-03T17:41:32.951Z,83.55
2022-12-03T17:43:59.519Z,83.99
2022-12-03T17:46:28.485Z,83.86
2022-12-03T17:48:57.637Z,83.47
2022-12-03T17:51:29.467Z,83.95
2022-12-03T17:53:56.150Z,83.87
2022-12-03T17:56:22.885Z,84.22
2022-12-03T17:58:49.437Z,84.35
2022-12-03T18:01:23.939Z,84.05
2022-12-03T18:03:58.051Z,84.28
2022-12-03T18:06:26.427Z,84.41
2022-12-03T18:08:53.064Z,84.65
2022-12-03T18:11:22.533Z,84.64
2022-12-03T18:13:51.758Z,84.49
2022-12-03T18:16:18.443Z,84.75
2022-12-03T18:18:48.090Z,84.60
2022-12-03T18:21:19.334Z,85.35
2022-12-03T18:23:48.268Z,85.40
2022-12-03T18:26:17.298Z,84.86
2022-12-03T18:28:46.347Z,85.06
2022-12-03T18:31:19.238Z,85.43
2022-12-03T18:33:46.046Z,85.27
2022-12-03T18:36:21.027Z,85.11
2022-12-03T18:38:55.570Z,85.57
2022-12-03T18:41:28.418Z,85.07
2022-12-03T18:43:55.565Z,84.89
2022-12-03T18:46:51.916Z,84.98
2022-12-03T18:49:13.832Z,85.75
2022-12-03T18:51:40.529Z,85.82
2022-12-03T18:54:12.596Z,85.75
2022-12-03T18:56:42.468Z,85.51
2022-12-03T18:59:12.535Z,85.36
2022-12-03T19:01:39.478Z,85.55
2022-12-03T19:04:06.124Z,85.71
2022-12-03T19:06:32.733Z,85.78
2022-12-03T19:09:01.957Z,85.46
2022-12-03T19:11:30.804Z,85.22
2022-12-03T19:13:59.174Z,85.50
2022-12-03T19:16:31.826Z,85.73
2022-12-03T19:19:00.875Z,85.48
2022-12-03T19:21:32.256Z,85.91
2022-12-03T19:24:25.505Z,85.96
2022-12-03T19:26:47.646Z,85.92
2022-12-03T19:29:14.255Z,85.79
2022-12-03T19:31:43.315Z,85.91
2022-12-03T19:34:10.074Z,86.49
2022-12-03T19:36:41.347Z,86.71
2022-12-03T19:39:10.298Z,86.52
2022-12-03T19:41:37.073Z,85.99
2022-12-03T19:44:10.749Z,86.41
2022-12-03T19:46:37.594Z,85.77
2022-12-03T19:49:04.982Z,85.73
2022-12-03T19:51:35.111Z,86.27
2022-12-03T19:54:09.832Z,86.35
2022-12-03T19:56:41.615Z,86.64
2022-12-03T19:59:10.550Z,86.22
2022-12-03T20:01:43.681Z,86.18
2022-12-03T20:04:14.197Z,85.95
2022-12-03T20:06:43.046Z,86.50
2022-12-03T20:09:24.317Z,86.20
2022-12-03T20:11:51.755Z,87.18
2022-12-03T20:14:20.876Z,87.38
2022-12-03T20:16:52.919Z,86.69
2022-12-03T20:19:19.638Z,86.32
2022-12-03T20:21:51.132Z,85.97
2022-12-03T20:24:20.238Z,85.57
2022-12-03T20:26:49.101Z,85.83
2022-12-03T20:29:18.271Z,85.26
2022-12-03T20:31:45.090Z,84.91
2022-12-03T20:34:12.011Z,84.99
2022-12-03T20:36:39.562Z,85.28
2022-12-03T20:39:10.299Z,85.30
2022-12-03T20:41:37.697Z,85.48
2022-12-03T20:44:09.862Z,85.65
2022-12-03T20:46:38.916Z,85.26
2022-12-03T20:49:10.476Z,85.24
2022-12-03T20:51:39.720Z,85.39
2022-12-03T20:54:06.290Z,85.91
2022-12-03T20:56:39.610Z,85.91
2022-12-03T20:59:10.886Z,86.11
2022-12-03T21:01:38.725Z,85.62
2022-12-03T21:04:09.297Z,85.89
2022-12-03T21:06:37.520Z,85.99
2022-12-03T21:09:06.927Z,85.51
2022-12-03T21:11:35.955Z,85.97
2022-12-03T21:14:02.822Z,85.28
2022-12-03T21:17:07.971Z,86.07
2022-12-03T21:19:28.845Z,85.90
2022-12-03T21:21:57.845Z,85.91
2022-12-03T21:24:24.629Z,86.20
2022-12-03T21:26:51.192Z,87.46
2022-12-03T21:29:20.170Z,86.73
2022-12-03T21:31:49.165Z,86.41
2022-12-03T21:34:20.909Z,86.64
2022-12-03T21:36:50.085Z,86.03
2022-12-03T21:39:16.710Z,86.34
2022-12-03T21:42:19.162Z,85.96
2022-12-03T21:44:30.021Z,86.19
2022-12-03T21:47:11.391Z,87.45
2022-12-03T21:49:42.896Z,87.42
2022-12-03T21:52:10.137Z,86.98
2022-12-03T21:54:39.156Z,87.23
2022-12-03T21:57:06.084Z,86.83
2022-12-03T21:59:35.119Z,87.31
2022-12-03T22:02:11.651Z,87.07
2022-12-03T22:04:41.158Z,87.15
2022-12-03T22:07:14.976Z,87.37
2022-12-03T22:09:41.563Z,85.96
2022-12-03T22:12:08.406Z,86.54
2022-12-03T22:14:35.116Z,86.45
2022-12-03T22:17:01.777Z,86.58
2022-12-03T22:19:31.278Z,86.91
2022-12-03T22:21:58.074Z,86.50
2022-12-03T22:24:27.203Z,86.69
2022-12-03T22:26:54.982Z,87.89
2022-12-03T22:29:21.799Z,88.22
2022-12-03T22:31:48.558Z,88.11
2022-12-03T22:34:15.307Z,87.44
2022-12-03T22:36:41.967Z,86.88
2022-12-03T22:39:11.034Z,86.50
2022-12-03T22:41:40.526Z,87.03
2022-12-03T22:44:11.917Z,87.62
2022-12-03T22:46:38.719Z,86.32
2022-12-03T22:49:07.555Z,86.92
2022-12-03T22:51:39.691Z,86.77
2022-12-03T22:54:06.773Z,86.53
2022-12-03T22:56:35.793Z,86.79
2022-12-03T22:59:02.943Z,86.29
2022-12-03T23:01:36.224Z,88.15
2022-12-03T23:04:06.146Z,87.41
2022-12-03T23:06:39.096Z,87.16
2022-12-03T23:09:09.439Z,87.08
2022-12-03T23:11:36.338Z,86.77
2022-12-03T23:14:07.846Z,86.79
2022-12-03T23:16:34.633Z,87.00
2022-12-03T23:19:07.111Z,86.89
2022-12-03T23:21:37.993Z,87.17
2022-12-03T23:24:08.326Z,87.40
2022-12-03T23:26:38.716Z,87.99
2022-12-03T23:29:08.696Z,87.18
2022-12-03T23:31:35.584Z,87.89
2022-12-03T23:34:05.242Z,86.94
2022-12-03T23:36:35.407Z,86.65
2022-12-03T23:39:02.183Z,87.24
2022-12-03T23:41:34.066Z,87.46
2022-12-03T23:44:00.661Z,87.23
2022-12-03T23:46:29.842Z,86.71
2022-12-03T23:48:58.991Z,86.98
2022-12-03T23:51:28.872Z,86.83
2022-12-03T23:53:56.362Z,86.50
2022-12-03T23:56:27.238Z,86.92
2022-12-03T23:58:53.824Z,86.95
